createdAt,value
2019-02-27T00:02:10.582Z,4.14
2019-02-27T00:04:38.327Z,4.14
2019-02-27T00:07:06.184Z,4.08
2019-02-27T00:09:52.610Z,4.07
2019-02-27T00:12:20.671Z,4.07
2019-02-27T00:17:25.925Z,4.02
2019-02-27T00:19:53.574Z,4.02
2019-02-27T00:22:39.843Z,3.98
2019-02-27T00:25:07.454Z,3.98
2019-02-27T00:27:53.723Z,3.93
2019-02-27T00:30:40.065Z,3.88
2019-02-27T00:33:28.631Z,3.86
2019-02-27T00:36:14.435Z,3.84
2019-02-27T00:39:00.788Z,3.84
2019-02-27T00:41:28.408Z,3.77
2019-02-27T00:46:47.195Z,3.72
2019-02-27T00:49:17.321Z,3.67
2019-02-27T00:54:19.528Z,3.49
2019-02-27T00:56:47.177Z,3.39
2019-02-27T00:59:33.713Z,3.30
2019-02-27T01:02:01.337Z,3.24
2019-02-27T01:04:49.616Z,3.20
2019-02-27T01:07:20.294Z,3.20
2019-02-27T01:09:46.450Z,3.15
2019-02-27T01:12:14.018Z,3.15
2019-02-27T01:15:00.417Z,3.14
2019-02-27T01:17:27.962Z,3.15
2019-02-27T01:19:55.532Z,3.15
2019-02-27T01:22:42.212Z,3.18
2019-02-27T01:25:09.910Z,3.19
2019-02-27T01:27:38.183Z,3.19
2019-02-27T01:30:27.949Z,3.21
2019-02-27T01:32:55.631Z,3.21
2019-02-27T01:38:28.505Z,3.22
2019-02-27T01:41:15.137Z,3.32
2019-02-27T01:44:01.535Z,3.41
2019-02-27T01:46:29.490Z,3.48
2019-02-27T01:49:16.700Z,3.51
2019-02-27T01:52:03.137Z,3.51
2019-02-27T01:54:30.606Z,3.51
2019-02-27T01:57:17.035Z,3.40
2019-02-27T01:59:45.036Z,3.30
2019-02-27T02:02:12.598Z,3.18
2019-02-27T02:04:58.870Z,3.18
2019-02-27T02:07:26.462Z,2.92
2019-02-27T02:09:55.045Z,2.92
2019-02-27T02:12:42.270Z,2.79
2019-02-27T02:15:10.027Z,2.76
2019-02-27T02:17:38.221Z,2.76
2019-02-27T02:20:06.830Z,2.74
2019-02-27T02:22:34.338Z,2.74
2019-02-27T02:25:02.125Z,2.74
2019-02-27T02:27:48.453Z,2.74
2019-02-27T02:30:34.779Z,2.78
2019-02-27T02:33:02.374Z,2.78
2019-02-27T02:35:50.684Z,2.80
2019-02-27T02:38:18.001Z,2.83
2019-02-27T02:40:45.730Z,2.87
2019-02-27T02:43:32.092Z,2.89
2019-02-27T02:45:59.683Z,2.92
2019-02-27T02:48:27.828Z,2.95
2019-02-27T02:51:15.453Z,2.97
2019-02-27T02:53:43.155Z,2.97
2019-02-27T02:56:10.804Z,2.88
2019-02-27T02:58:38.404Z,2.85
2019-02-27T03:01:06.134Z,2.85
2019-02-27T03:03:37.251Z,2.73
2019-02-27T03:06:21.760Z,2.67
2019-02-27T03:09:08.168Z,2.62
2019-02-27T03:11:35.793Z,2.62
2019-02-27T03:14:03.379Z,2.60
2019-02-27T03:16:49.776Z,2.62
2019-02-27T03:19:41.275Z,2.62
2019-02-27T03:22:07.159Z,2.62
2019-02-27T03:24:53.813Z,2.60
2019-02-27T03:27:21.470Z,2.60
2019-02-27T03:29:53.468Z,2.54
2019-02-27T03:32:43.142Z,2.49
2019-02-27T03:35:06.856Z,2.41
2019-02-27T03:37:34.553Z,2.41
2019-02-27T03:40:20.962Z,2.36
2019-02-27T03:42:48.502Z,2.28
2019-02-27T03:45:35.201Z,2.27
2019-02-27T03:48:02.863Z,2.26
2019-02-27T03:50:30.524Z,2.26
2019-02-27T03:53:16.911Z,2.29
2019-02-27T03:55:47.172Z,2.42
2019-02-27T03:58:14.916Z,2.42
2019-02-27T04:03:18.219Z,2.48
2019-02-27T04:05:46.701Z,2.48
2019-02-27T04:11:19.421Z,2.46
2019-02-27T04:14:05.830Z,2.43
2019-02-27T04:16:33.451Z,2.42
2019-02-27T04:19:04.589Z,2.38
2019-02-27T04:21:30.682Z,2.38
2019-02-27T04:23:58.249Z,2.33
2019-02-27T04:26:44.688Z,2.34
2019-02-27T04:29:12.371Z,2.34
2019-02-27T04:31:59.033Z,2.41
2019-02-27T04:34:45.438Z,2.43
2019-02-27T04:37:13.078Z,2.43
2019-02-27T04:39:59.434Z,2.43
2019-02-27T04:42:27.191Z,2.40
2019-02-27T04:44:55.240Z,2.40
2019-02-27T04:47:22.871Z,2.32
2019-02-27T04:49:50.426Z,2.31
2019-02-27T04:52:36.827Z,2.31
2019-02-27T04:55:04.454Z,2.31
2019-02-27T04:58:03.210Z,2.32
2019-02-27T05:00:20.573Z,2.32
2019-02-27T05:03:07.270Z,2.27
2019-02-27T05:08:21.341Z,2.23
2019-02-27T05:10:48.980Z,2.20
2019-02-27T05:13:20.703Z,2.18
2019-02-27T05:15:45.761Z,2.18
2019-02-27T05:18:13.617Z,2.12
2019-02-27T05:20:44.953Z,2.12
2019-02-27T05:23:10.498Z,2.06
2019-02-27T05:25:38.306Z,2.05
2019-02-27T05:28:05.787Z,2.02
2019-02-27T05:30:33.393Z,2.02
2019-02-27T05:33:02.245Z,2.03
2019-02-27T05:35:48.998Z,2.04
2019-02-27T05:38:16.555Z,2.00
2019-02-27T05:40:44.177Z,2.00
2019-02-27T05:43:33.252Z,2.00
2019-02-27T05:46:02.955Z,1.97
2019-02-27T05:48:50.927Z,1.97
2019-02-27T05:51:18.037Z,1.93
2019-02-27T05:54:04.435Z,1.82
2019-02-27T05:56:31.987Z,1.78
2019-02-27T05:59:18.399Z,1.74
2019-02-27T06:01:45.866Z,1.74
2019-02-27T06:04:19.425Z,1.71
2019-02-27T06:07:05.766Z,1.68
2019-02-27T06:09:33.381Z,1.74
2019-02-27T06:12:01.189Z,1.79
2019-02-27T06:14:28.827Z,1.79
2019-02-27T06:16:56.418Z,1.93
2019-02-27T06:19:42.796Z,1.93
2019-02-27T06:22:10.415Z,1.93
2019-02-27T06:24:58.847Z,1.93
2019-02-27T06:27:37.204Z,1.99
2019-02-27T06:30:04.441Z,1.99
2019-02-27T06:32:50.859Z,2.05
2019-02-27T06:35:18.901Z,2.03
2019-02-27T06:40:51.954Z,1.96
2019-02-27T06:43:38.373Z,1.96
2019-02-27T06:46:06.017Z,1.94
2019-02-27T06:48:33.896Z,1.90
2019-02-27T06:51:20.220Z,1.90
2019-02-27T06:54:08.934Z,1.90
2019-02-27T06:56:36.504Z,1.89
2019-02-27T06:59:25.231Z,1.87
2019-02-27T07:01:52.808Z,1.85
2019-02-27T07:04:20.669Z,1.85
2019-02-27T07:07:07.050Z,1.91
2019-02-27T07:09:53.371Z,1.91
2019-02-27T07:12:40.162Z,2.11
2019-02-27T07:15:26.534Z,2.23
2019-02-27T07:17:57.308Z,2.23
2019-02-27T07:20:30.208Z,2.35
2019-02-27T07:22:59.454Z,2.46
2019-02-27T07:25:45.794Z,2.73
2019-02-27T07:30:48.032Z,2.95
2019-02-27T07:33:15.746Z,2.95
2019-02-27T07:36:03.672Z,3.19
2019-02-27T07:38:31.565Z,3.19
2019-02-27T07:40:59.124Z,3.34
2019-02-27T07:43:26.612Z,3.45
2019-02-27T07:46:13.043Z,3.58
2019-02-27T07:48:40.788Z,3.85
2019-02-27T07:51:27.164Z,3.85
2019-02-27T07:53:54.859Z,3.97
2019-02-27T07:59:01.081Z,4.27
2019-02-27T08:01:28.591Z,4.46
2019-02-27T08:04:19.066Z,4.86
2019-02-27T08:07:04.090Z,5.21
2019-02-27T08:09:50.492Z,5.21
2019-02-27T08:12:19.984Z,5.58
2019-02-27T08:15:06.479Z,5.96
2019-02-27T08:17:57.426Z,6.31
2019-02-27T08:20:40.967Z,6.63
2019-02-27T08:23:10.881Z,7.16
2019-02-27T08:25:38.970Z,7.38
2019-02-27T08:28:06.494Z,7.38
2019-02-27T08:30:34.050Z,7.62
2019-02-27T08:33:01.927Z,7.88
2019-02-27T08:35:29.517Z,7.97
2019-02-27T08:38:02.516Z,7.97
2019-02-27T08:40:45.220Z,8.22
2019-02-27T08:43:12.815Z,8.22
2019-02-27T08:45:41.977Z,8.42
2019-02-27T08:48:09.597Z,8.68
2019-02-27T08:50:37.551Z,9.32
2019-02-27T08:53:36.446Z,9.32
2019-02-27T08:59:12.318Z,10.20
2019-02-27T09:04:33.388Z,10.79
2019-02-27T09:09:51.662Z,11.24
2019-02-27T09:12:18.969Z,11.63
2019-02-27T09:15:05.327Z,12.00
2019-02-27T09:17:33.255Z,12.23
2019-02-27T09:20:01.122Z,12.47
2019-02-27T09:22:40.893Z,12.47
2019-02-27T09:25:11.155Z,12.49
2019-02-27T09:27:40.769Z,12.44
2019-02-27T09:30:08.378Z,12.44
2019-02-27T09:33:04.877Z,12.38
2019-02-27T09:35:24.672Z,12.38
2019-02-27T09:38:11.067Z,12.39
2019-02-27T09:40:39.532Z,12.43
2019-02-27T09:43:27.196Z,12.48
2019-02-27T09:45:56.220Z,12.56
2019-02-27T09:49:07.071Z,12.64
2019-02-27T09:51:11.977Z,12.72
2019-02-27T09:53:42.314Z,12.94
2019-02-27T09:56:11.578Z,12.94
2019-02-27T09:58:45.076Z,13.24
2019-02-27T10:01:29.185Z,13.24
2019-02-27T10:03:58.879Z,13.39
2019-02-27T10:06:45.457Z,14.18
2019-02-27T10:09:12.999Z,14.18
2019-02-27T10:11:40.914Z,15.16
2019-02-27T10:14:27.320Z,17.75
2019-02-27T10:16:55.276Z,17.75
2019-02-27T10:19:22.922Z,19.16
2019-02-27T10:21:50.590Z,20.33
2019-02-27T10:24:37.611Z,22.24
2019-02-27T10:27:05.283Z,22.24
2019-02-27T10:29:33.267Z,23.14
2019-02-27T10:32:19.579Z,23.87
2019-02-27T10:34:47.213Z,24.53
2019-02-27T10:37:18.237Z,25.27
2019-02-27T10:42:18.619Z,26.20
2019-02-27T10:45:09.695Z,26.78
2019-02-27T10:47:36.516Z,27.26
2019-02-27T10:50:22.578Z,27.75
2019-02-27T10:52:50.342Z,28.24
2019-02-27T10:55:19.734Z,28.64
2019-02-27T10:57:47.353Z,29.03
2019-02-27T11:00:15.016Z,29.46
2019-02-27T11:02:47.953Z,29.72
2019-02-27T11:05:15.134Z,29.84
2019-02-27T11:07:43.980Z,30.14
2019-02-27T11:10:24.972Z,30.50
2019-02-27T11:12:41.192Z,30.79
2019-02-27T11:18:05.591Z,31.13
2019-02-27T11:20:31.131Z,31.13
2019-02-27T11:22:58.970Z,31.16
2019-02-27T11:25:26.569Z,31.24
2019-02-27T11:27:54.145Z,31.31
2019-02-27T11:30:22.037Z,31.46
2019-02-27T11:32:49.577Z,31.70
2019-02-27T11:35:22.112Z,31.82
2019-02-27T11:37:49.460Z,32.23
2019-02-27T11:40:17.341Z,32.23
2019-02-27T11:42:45.526Z,32.23
2019-02-27T11:45:13.060Z,32.27
2019-02-27T11:47:45.115Z,32.31
2019-02-27T11:50:17.825Z,32.37
2019-02-27T11:52:49.115Z,32.53
2019-02-27T11:55:17.346Z,32.60
2019-02-27T11:57:45.203Z,32.37
2019-02-27T12:03:19.841Z,32.20
2019-02-27T12:05:47.312Z,32.25
2019-02-27T12:08:15.148Z,32.35
2019-02-27T12:10:56.982Z,32.45
2019-02-27T12:13:32.336Z,32.54
2019-02-27T12:16:00.691Z,32.20
2019-02-27T12:23:49.422Z,32.21
2019-02-27T12:26:37.539Z,32.10
2019-02-27T12:29:38.289Z,31.81
2019-02-27T12:31:55.614Z,31.74
2019-02-27T12:34:25.160Z,31.89
2019-02-27T12:36:53.206Z,31.89
2019-02-27T12:39:43.559Z,31.90
2019-02-27T12:42:12.358Z,31.96
2019-02-27T12:44:58.982Z,31.93
2019-02-27T12:47:26.524Z,31.77
2019-02-27T12:49:54.928Z,31.39
2019-02-27T12:52:22.775Z,30.98
2019-02-27T12:54:52.388Z,30.78
2019-02-27T12:59:54.408Z,30.55
2019-02-27T13:02:35.793Z,30.27
2019-02-27T13:07:24.319Z,29.99
2019-02-27T13:09:51.884Z,29.77
2019-02-27T13:12:38.316Z,29.45
2019-02-27T13:15:08.269Z,29.09
2019-02-27T13:17:47.800Z,28.69
2019-02-27T13:20:23.932Z,28.38
2019-02-27T13:22:51.849Z,28.09
2019-02-27T13:25:39.946Z,27.67
2019-02-27T13:33:53.297Z,25.93
2019-02-27T13:36:33.981Z,25.28
2019-02-27T13:39:08.915Z,25.28
2019-02-27T13:41:36.970Z,25.09
2019-02-27T13:44:07.917Z,24.96
2019-02-27T13:46:36.046Z,24.54
2019-02-27T13:51:50.283Z,24.27
2019-02-27T14:00:22.700Z,23.66
2019-02-27T14:02:39.830Z,23.62
2019-02-27T14:05:09.161Z,23.73
2019-02-27T14:16:04.303Z,23.68
2019-02-27T14:18:32.251Z,23.65
2019-02-27T14:21:01.748Z,23.66
2019-02-27T14:23:30.829Z,23.77
2019-02-27T14:25:58.412Z,23.76
2019-02-27T14:28:34.397Z,23.72
2019-02-27T14:31:18.190Z,23.75
2019-02-27T14:33:54.095Z,23.84
2019-02-27T14:36:18.234Z,23.85
2019-02-27T14:38:45.789Z,23.85
2019-02-27T14:41:14.371Z,23.78
2019-02-27T14:43:42.706Z,23.65
2019-02-27T14:46:14.034Z,23.75
2019-02-27T14:48:45.070Z,23.83
2019-02-27T14:51:12.647Z,23.88
2019-02-27T14:53:42.404Z,23.88
2019-02-27T14:56:11.479Z,23.94
2019-02-27T14:58:41.965Z,23.96
2019-02-27T15:01:11.857Z,23.85
2019-02-27T15:03:43.191Z,23.85
2019-02-27T15:06:15.928Z,23.75
2019-02-27T15:08:42.737Z,23.66
2019-02-27T15:11:13.813Z,23.63
2019-02-27T15:13:39.604Z,23.72
2019-02-27T15:16:07.437Z,23.84
2019-02-27T15:18:36.691Z,23.84
2019-02-27T15:21:04.234Z,23.95
2019-02-27T15:23:32.443Z,24.18
2019-02-27T15:26:00.253Z,24.41
2019-02-27T15:28:33.030Z,24.41
2019-02-27T15:31:01.439Z,24.70
2019-02-27T15:33:28.960Z,24.99
2019-02-27T15:35:59.093Z,25.26
2019-02-27T15:38:29.296Z,25.51
2019-02-27T15:41:03.152Z,25.81
2019-02-27T15:43:30.953Z,26.26
2019-02-27T15:46:02.147Z,26.26
2019-02-27T15:48:29.652Z,26.51
2019-02-27T15:51:03.254Z,26.82
2019-02-27T15:53:33.653Z,26.82
2019-02-27T15:56:05.425Z,25.85
2019-02-27T15:58:33.971Z,24.76
2019-02-27T16:01:01.876Z,24.76
2019-02-27T16:03:31.211Z,23.81
2019-02-27T16:06:05.190Z,22.98
2019-02-27T16:08:28.834Z,22.26
2019-02-27T16:10:59.547Z,21.61
2019-02-27T16:13:27.138Z,21.07
2019-02-27T16:15:56.498Z,20.18
2019-02-27T16:18:25.209Z,20.18
2019-02-27T16:20:56.120Z,19.80
2019-02-27T16:23:23.676Z,19.46
2019-02-27T16:25:54.122Z,19.13
2019-02-27T16:28:23.535Z,18.84
2019-02-27T16:31:10.357Z,18.55
2019-02-27T16:33:38.270Z,18.28
2019-02-27T16:36:05.914Z,18.03
2019-02-27T16:38:33.570Z,17.81
2019-02-27T16:41:04.170Z,17.40
2019-02-27T16:43:34.327Z,17.40
2019-02-27T16:48:52.230Z,16.99
2019-02-27T16:51:19.949Z,16.61
2019-02-27T16:53:52.356Z,16.42
2019-02-27T16:59:22.036Z,16.05
2019-02-27T17:02:08.423Z,16.05
2019-02-27T17:04:42.808Z,15.86
2019-02-27T17:07:30.027Z,15.62
2019-02-27T17:09:58.392Z,15.40
2019-02-27T17:12:45.792Z,15.22
2019-02-27T17:15:13.430Z,15.04
2019-02-27T17:17:59.794Z,14.87
2019-02-27T17:20:30.246Z,14.74
2019-02-27T17:23:10.803Z,14.60
2019-02-27T17:25:45.975Z,14.39
2019-02-27T17:28:13.682Z,14.39
2019-02-27T17:30:41.412Z,14.29
2019-02-27T17:33:09.092Z,14.24
2019-02-27T17:35:36.556Z,14.20
2019-02-27T17:38:22.991Z,14.13
2019-02-27T17:40:52.644Z,13.93
2019-02-27T17:43:20.192Z,13.93
2019-02-27T17:45:48.098Z,13.83
2019-02-27T17:48:18.703Z,13.75
2019-02-27T17:53:34.623Z,13.75
2019-02-27T17:56:24.009Z,13.54
2019-02-27T17:59:10.418Z,13.54
2019-02-27T18:01:38.107Z,13.23
2019-02-27T18:04:24.522Z,13.14
2019-02-27T18:06:54.969Z,13.09
2019-02-27T18:09:23.515Z,13.09
2019-02-27T18:11:55.440Z,13.05
2019-02-27T18:14:33.149Z,13.03
2019-02-27T18:16:52.199Z,13.00
2019-02-27T18:19:20.100Z,12.99
2019-02-27T18:21:47.711Z,13.00
2019-02-27T18:24:15.334Z,12.99
2019-02-27T18:26:49.991Z,12.99
2019-02-27T18:29:17.070Z,12.93
2019-02-27T18:31:44.559Z,12.93
2019-02-27T18:34:17.792Z,12.95
2019-02-27T18:36:46.523Z,12.87
2019-02-27T18:39:14.706Z,12.87
2019-02-27T18:41:47.189Z,12.80
2019-02-27T18:44:12.239Z,12.39
2019-02-27T18:46:47.149Z,12.39
2019-02-27T18:49:18.658Z,11.92
2019-02-27T18:51:44.618Z,11.92
2019-02-27T18:54:12.132Z,11.72
2019-02-27T18:56:40.475Z,11.54
2019-02-27T18:59:08.008Z,11.36
2019-02-27T19:01:35.750Z,11.23
2019-02-27T19:04:03.659Z,10.94
2019-02-27T19:06:31.235Z,10.94
2019-02-27T19:09:01.116Z,10.84
2019-02-27T19:11:28.992Z,10.67
2019-02-27T19:13:56.626Z,10.62
2019-02-27T19:16:27.548Z,10.53
2019-02-27T19:19:01.511Z,10.53
2019-02-27T19:21:33.518Z,10.35
2019-02-27T19:24:02.934Z,10.25
2019-02-27T19:26:30.839Z,10.25
2019-02-27T19:28:59.527Z,10.13
2019-02-27T19:31:27.959Z,10.02
2019-02-27T19:33:55.928Z,9.83
2019-02-27T19:36:42.311Z,9.75
2019-02-27T19:39:30.398Z,9.75
2019-02-27T19:42:13.038Z,9.73
2019-02-27T19:44:48.930Z,9.60
2019-02-27T19:47:28.716Z,9.60
2019-02-27T19:52:38.719Z,9.52
2019-02-27T19:55:06.325Z,9.44
2019-02-27T19:57:52.752Z,9.44
2019-02-27T20:00:20.438Z,9.33
2019-02-27T20:03:06.779Z,9.12
2019-02-27T20:05:36.265Z,9.12
2019-02-27T20:08:22.411Z,9.06
2019-02-27T20:13:38.247Z,8.94
2019-02-27T20:16:05.864Z,8.88
2019-02-27T20:18:33.496Z,8.82
2019-02-27T20:21:19.881Z,8.73
2019-02-27T20:26:44.794Z,8.68
2019-02-27T20:29:12.081Z,8.62
2019-02-27T20:31:40.069Z,8.57
2019-02-27T20:34:26.452Z,8.49
2019-02-27T20:37:07.698Z,8.49
2019-02-27T20:39:44.135Z,8.39
2019-02-27T20:42:30.489Z,8.39
2019-02-27T20:45:09.899Z,8.34
2019-02-27T20:47:46.255Z,8.29
2019-02-27T20:53:05.121Z,8.20
2019-02-27T20:55:32.793Z,8.17
2019-02-27T20:58:19.227Z,8.15
2019-02-27T21:00:48.463Z,8.12
2019-02-27T21:03:16.443Z,8.12
2019-02-27T21:05:44.105Z,8.12
2019-02-27T21:08:11.802Z,7.99
2019-02-27T21:10:58.189Z,7.94
2019-02-27T21:16:30.919Z,7.89
2019-02-27T21:18:58.618Z,7.96
2019-02-27T21:21:26.429Z,7.96
2019-02-27T21:23:54.971Z,8.04
2019-02-27T21:26:22.950Z,8.06
2019-02-27T21:28:58.237Z,8.00
2019-02-27T21:31:26.589Z,7.92
2019-02-27T21:33:54.683Z,7.92
2019-02-27T21:36:25.349Z,7.85
2019-02-27T21:38:52.920Z,7.75
2019-02-27T21:41:20.382Z,7.70
2019-02-27T21:43:48.269Z,7.70
2019-02-27T21:46:17.864Z,7.65
2019-02-27T21:48:45.154Z,7.57
2019-02-27T21:51:15.951Z,7.50
2019-02-27T21:53:43.548Z,7.45
2019-02-27T21:56:11.103Z,7.34
2019-02-27T21:58:44.574Z,7.27
2019-02-27T22:01:12.941Z,7.27
2019-02-27T22:03:47.633Z,7.23
2019-02-27T22:06:15.438Z,7.13
2019-02-27T22:08:46.385Z,7.09
2019-02-27T22:11:16.719Z,7.09
2019-02-27T22:13:45.420Z,7.03
2019-02-27T22:16:13.439Z,7.03
2019-02-27T22:18:46.751Z,6.99
2019-02-27T22:21:11.554Z,6.89
2019-02-27T22:23:39.100Z,6.89
2019-02-27T22:26:06.646Z,6.83
2019-02-27T22:28:34.478Z,6.73
2019-02-27T22:31:06.785Z,6.68
2019-02-27T22:33:33.311Z,6.65
2019-02-27T22:36:01.219Z,6.63
2019-02-27T22:38:28.785Z,6.58
2019-02-27T22:40:56.373Z,6.56
2019-02-27T22:43:24.016Z,6.52
2019-02-27T22:45:51.798Z,6.52
2019-02-27T22:48:21.213Z,6.46
2019-02-27T22:50:53.823Z,6.42
2019-02-27T22:53:22.847Z,6.42
2019-02-27T22:55:50.365Z,6.36
2019-02-27T22:58:19.929Z,6.36
2019-02-27T23:01:08.644Z,6.30
2019-02-27T23:03:36.177Z,6.26
2019-02-27T23:06:09.228Z,6.22
2019-02-27T23:08:36.179Z,6.22
2019-02-27T23:11:06.533Z,6.13
2019-02-27T23:13:35.566Z,6.09
2019-02-27T23:16:03.485Z,6.09
2019-02-27T23:18:31.046Z,6.07
2019-02-27T23:20:58.836Z,6.07
2019-02-27T23:23:26.283Z,6.07
2019-02-27T23:25:53.821Z,6.16
2019-02-27T23:28:21.414Z,6.55
2019-02-27T23:30:49.234Z,6.94
2019-02-27T23:33:16.928Z,7.31
2019-02-27T23:35:47.344Z,7.46
2019-02-27T23:38:13.727Z,7.45
2019-02-27T23:40:41.609Z,7.40
2019-02-27T23:43:09.239Z,7.40
2019-02-27T23:45:36.842Z,7.18
2019-02-27T23:48:04.984Z,7.18
2019-02-27T23:50:32.521Z,6.88
2019-02-27T23:53:00.137Z,6.76
2019-02-27T23:55:27.720Z,6.66
2019-02-27T23:57:57.790Z,6.55
